createdAt,value
2022-12-05T00:01:17.146Z,7.40
2022-12-05T00:03:44.937Z,7.30
2022-12-05T00:06:11.754Z,7.30
2022-12-05T00:08:38.855Z,7.30
2022-12-05T00:11:12.323Z,7.40
2022-12-05T00:13:40.749Z,7.40
2022-12-05T00:16:09.662Z,7.40
2022-12-05T00:18:36.888Z,7.30
2022-12-05T00:21:04.519Z,7.40
2022-12-05T00:23:31.203Z,7.40
2022-12-05T00:26:01.234Z,7.40
2022-12-05T00:28:27.888Z,7.40
2022-12-05T00:30:54.687Z,7.40
2022-12-05T00:33:21.482Z,7.40
2022-12-05T00:35:48.339Z,7.40
2022-12-05T00:38:15.278Z,7.30
2022-12-05T00:40:41.923Z,7.40
2022-12-05T00:43:08.796Z,7.30
2022-12-05T00:45:35.423Z,7.30
2022-12-05T00:48:02.443Z,7.30
2022-12-05T00:50:29.123Z,7.30
2022-12-05T00:52:55.864Z,7.30
2022-12-05T00:55:22.603Z,7.30
2022-12-05T00:57:49.269Z,7.30
2022-12-05T01:00:16.728Z,7.30
2022-12-05T01:02:43.486Z,7.30
2022-12-05T01:05:10.314Z,7.30
2022-12-05T01:07:37.018Z,7.30
2022-12-05T01:10:04.353Z,7.30
2022-12-05T01:12:31.046Z,7.20
2022-12-05T01:14:57.724Z,7.20
2022-12-05T01:17:24.491Z,7.20
2022-12-05T01:19:51.271Z,7.20
2022-12-05T01:22:17.900Z,7.20
2022-12-05T01:24:44.772Z,7.10
2022-12-05T01:27:11.412Z,7.10
2022-12-05T01:29:38.187Z,7.10
2022-12-05T01:32:05.090Z,7.00
2022-12-05T01:34:32.074Z,7.00
2022-12-05T01:36:58.746Z,7.00
2022-12-05T01:39:25.640Z,7.00
2022-12-05T01:41:52.430Z,6.90
2022-12-05T01:44:19.258Z,6.90
2022-12-05T01:46:49.103Z,6.90
2022-12-05T01:49:22.125Z,6.90
2022-12-05T01:51:54.744Z,6.90
2022-12-05T01:54:22.936Z,6.80
2022-12-05T01:56:55.500Z,6.80
2022-12-05T01:59:23.435Z,6.80
2022-12-05T02:01:50.845Z,6.80
2022-12-05T02:04:17.902Z,6.80
2022-12-05T02:06:44.606Z,6.80
2022-12-05T02:09:11.799Z,6.80
2022-12-05T02:11:53.764Z,6.70
2022-12-05T02:14:55.170Z,6.70
2022-12-05T02:17:28.178Z,6.70
2022-12-05T02:20:39.197Z,6.70
2022-12-05T02:23:16.282Z,6.70
2022-12-05T02:26:17.264Z,6.70
2022-12-05T02:29:07.434Z,6.60
2022-12-05T02:31:41.284Z,6.60
2022-12-05T02:34:25.935Z,6.60
2022-12-05T02:37:07.393Z,6.50
2022-12-05T02:39:54.151Z,6.50
2022-12-05T02:42:32.668Z,6.50
2022-12-05T02:45:09.986Z,6.50
2022-12-05T02:47:40.869Z,6.50
2022-12-05T02:50:11.807Z,6.50
2022-12-05T02:52:39.177Z,6.50
2022-12-05T02:55:08.164Z,6.40
2022-12-05T02:57:37.507Z,6.40
2022-12-05T03:00:05.302Z,6.40
2022-12-05T03:02:34.948Z,6.40
2022-12-05T03:05:33.104Z,6.40
2022-12-05T03:08:03.632Z,6.40
2022-12-05T03:10:33.902Z,6.40
2022-12-05T03:13:09.367Z,6.30
2022-12-05T03:15:41.919Z,6.40
2022-12-05T03:18:15.742Z,6.30
2022-12-05T03:20:51.400Z,6.30
2022-12-05T03:23:33.012Z,6.30
2022-12-05T03:26:11.840Z,6.30
2022-12-05T03:29:01.090Z,6.30
2022-12-05T03:32:06.750Z,6.30
2022-12-05T03:34:45.706Z,6.30
2022-12-05T03:37:40.671Z,6.30
2022-12-05T03:40:43.087Z,6.30
2022-12-05T03:43:20.194Z,6.20
2022-12-05T03:45:52.922Z,6.20
2022-12-05T03:48:30.307Z,6.20
2022-12-05T03:50:59.459Z,6.20
2022-12-05T03:53:40.679Z,6.20
2022-12-05T03:56:13.321Z,6.10
2022-12-05T03:58:46.443Z,6.10
2022-12-05T04:01:16.857Z,6.10
2022-12-05T04:03:56.391Z,6.10
2022-12-05T04:06:32.191Z,6.10
2022-12-05T04:09:03.636Z,6.10
2022-12-05T04:11:34.514Z,6.10
2022-12-05T04:14:24.833Z,6.10
2022-12-05T04:17:05.226Z,6.10
2022-12-05T04:20:09.328Z,6.10
2022-12-05T04:22:37.630Z,6.10
2022-12-05T04:25:26.683Z,6.10
2022-12-05T04:27:59.972Z,6.10
2022-12-05T04:30:41.158Z,6.10
2022-12-05T04:33:16.545Z,6.10
2022-12-05T04:36:00.942Z,6.10
2022-12-05T04:38:35.218Z,6.10
2022-12-05T04:41:06.433Z,6.10
2022-12-05T04:43:37.664Z,6.10
2022-12-05T04:46:08.209Z,6.10
2022-12-05T04:48:38.938Z,6.10
2022-12-05T04:51:08.557Z,6.10
2022-12-05T04:53:36.214Z,6.10
2022-12-05T04:56:05.108Z,6.10
2022-12-05T04:58:32.295Z,6.10
2022-12-05T05:01:23.559Z,6.10
2022-12-05T05:03:56.475Z,6.10
2022-12-05T05:06:23.365Z,6.00
2022-12-05T05:08:52.763Z,6.10
2022-12-05T05:11:29.057Z,6.10
2022-12-05T05:13:56.398Z,6.10
2022-12-05T05:16:37.271Z,6.00
2022-12-05T05:19:05.663Z,6.00
2022-12-05T05:21:35.323Z,6.10
2022-12-05T05:24:02.100Z,6.10
2022-12-05T05:26:31.310Z,6.00
2022-12-05T05:28:58.349Z,6.00
2022-12-05T05:31:25.482Z,6.00
2022-12-05T05:33:54.117Z,6.00
2022-12-05T05:36:22.703Z,6.00
2022-12-05T05:38:52.515Z,6.00
2022-12-05T05:41:20.387Z,6.00
2022-12-05T05:43:48.280Z,6.00
2022-12-05T05:46:16.601Z,6.00
2022-12-05T05:48:43.352Z,6.00
2022-12-05T05:51:12.089Z,6.00
2022-12-05T05:53:39.185Z,6.00
2022-12-05T05:56:15.914Z,6.00
